createdAt,value
2019-01-13T00:00:11.767Z,5.83
2019-01-13T00:01:08.431Z,5.84
2019-01-13T00:02:09.875Z,5.84
2019-01-13T00:03:10.245Z,5.85
2019-01-13T00:04:10.874Z,5.86
2019-01-13T00:05:11.945Z,5.87
2019-01-13T00:06:11.375Z,5.88
2019-01-13T00:07:11.756Z,5.89
2019-01-13T00:08:12.091Z,5.91
2019-01-13T00:09:12.388Z,5.92
2019-01-13T00:10:12.800Z,5.94
2019-01-13T00:11:13.443Z,5.96
2019-01-13T00:12:13.893Z,5.97
2019-01-13T00:13:14.151Z,5.98
2019-01-13T00:14:14.441Z,6.00
2019-01-13T00:15:14.745Z,6.01
2019-01-13T00:16:15.051Z,6.03
2019-01-13T00:17:15.466Z,6.04
2019-01-13T00:18:15.962Z,6.05
2019-01-13T00:19:16.265Z,6.06
2019-01-13T00:20:48.783Z,6.24
2019-01-13T00:21:50.061Z,6.24
2019-01-13T00:22:50.333Z,6.24
2019-01-13T00:23:50.699Z,6.24
2019-01-13T00:24:50.993Z,6.24
2019-01-13T00:25:51.339Z,6.24
2019-01-13T00:26:51.786Z,6.24
2019-01-13T00:27:52.175Z,6.24
2019-01-13T00:28:52.558Z,6.23
2019-01-13T00:29:53.028Z,6.23
2019-01-13T00:30:53.128Z,6.23
2019-01-13T00:31:53.440Z,6.23
2019-01-13T00:32:53.871Z,6.23
2019-01-13T00:33:54.197Z,6.23
2019-01-13T00:34:55.029Z,6.22
2019-01-13T00:35:55.211Z,6.22
2019-01-13T00:36:55.561Z,6.22
2019-01-13T00:37:55.808Z,6.21
2019-01-13T00:38:56.246Z,6.21
2019-01-13T00:39:56.651Z,6.21
2019-01-13T00:40:56.943Z,6.21
2019-01-13T00:41:57.303Z,6.22
2019-01-13T00:42:57.654Z,6.22
2019-01-13T00:43:58.900Z,6.22
2019-01-13T00:44:58.374Z,6.22
2019-01-13T00:45:58.684Z,6.22
2019-01-13T00:46:58.130Z,6.22
2019-01-13T00:47:59.519Z,6.22
2019-01-13T00:48:59.880Z,6.22
2019-01-13T00:49:59.072Z,6.23
2019-01-13T00:51:00.712Z,6.23
2019-01-13T00:51:59.923Z,6.23
2019-01-13T00:53:01.251Z,6.23
2019-01-13T00:54:01.624Z,6.23
2019-01-13T00:55:01.993Z,6.22
2019-01-13T00:56:02.377Z,6.22
2019-01-13T00:57:02.826Z,6.22
2019-01-13T00:58:03.163Z,6.22
2019-01-13T00:59:03.480Z,6.22
2019-01-13T01:00:03.722Z,6.22
2019-01-13T01:01:04.188Z,6.22
2019-01-13T01:02:04.828Z,6.22
2019-01-13T01:03:05.166Z,6.22
2019-01-13T01:04:05.387Z,6.21
2019-01-13T01:05:05.756Z,6.21
2019-01-13T01:06:06.091Z,6.20
2019-01-13T01:06:14.138Z,6.11
2019-01-13T01:07:15.376Z,6.11
2019-01-13T01:08:15.744Z,6.11
2019-01-13T01:09:15.976Z,6.10
2019-01-13T01:10:16.438Z,6.10
2019-01-13T01:11:16.811Z,6.09
2019-01-13T01:12:17.442Z,6.09
2019-01-13T01:13:17.810Z,6.08
2019-01-13T01:14:18.314Z,6.08
2019-01-13T01:15:18.673Z,6.07
2019-01-13T01:16:19.219Z,6.06
2019-01-13T01:17:19.632Z,6.06
2019-01-13T01:18:20.162Z,6.05
2019-01-13T01:19:20.599Z,6.05
2019-01-13T01:20:21.158Z,6.05
2019-01-13T01:21:21.650Z,6.05
2019-01-13T01:22:22.263Z,6.05
2019-01-13T01:23:22.931Z,6.04
2019-01-13T01:24:23.359Z,6.04
2019-01-13T01:25:23.976Z,6.04
2019-01-13T01:26:24.340Z,6.04
2019-01-13T01:27:24.813Z,6.03
2019-01-13T01:28:25.337Z,6.03
2019-01-13T01:29:25.862Z,6.03
2019-01-13T01:30:33.273Z,6.02
2019-01-13T01:31:25.890Z,6.02
2019-01-13T01:32:27.308Z,6.02
2019-01-13T01:33:27.757Z,6.02
2019-01-13T01:34:28.249Z,6.02
2019-01-13T01:35:28.695Z,6.02
2019-01-13T01:36:29.159Z,6.02
2019-01-13T01:37:30.805Z,6.02
2019-01-13T01:38:30.287Z,6.02
2019-01-13T01:39:30.690Z,6.02
2019-01-13T01:40:31.117Z,6.02
2019-01-13T01:41:31.474Z,6.02
2019-01-13T01:42:31.745Z,6.02
2019-01-13T01:43:32.166Z,6.02
2019-01-13T01:44:32.432Z,6.02
2019-01-13T01:45:32.774Z,6.02
2019-01-13T01:46:33.045Z,6.02
2019-01-13T01:47:33.376Z,6.03
2019-01-13T01:48:33.770Z,6.03
2019-01-13T01:48:42.312Z,6.07
2019-01-13T01:49:42.882Z,6.07
2019-01-13T01:50:43.312Z,6.07
2019-01-13T01:51:43.678Z,6.07
2019-01-13T01:52:43.999Z,6.07
2019-01-13T01:53:44.266Z,6.06
2019-01-13T01:54:44.534Z,6.06
2019-01-13T01:55:44.782Z,6.06
2019-01-13T01:56:45.045Z,6.06
2019-01-13T01:57:45.368Z,6.06
2019-01-13T01:58:46.620Z,6.06
2019-01-13T01:59:45.927Z,6.06
2019-01-13T02:00:46.393Z,6.05
2019-01-13T02:01:46.741Z,6.05
2019-01-13T02:02:47.086Z,6.04
2019-01-13T02:03:47.390Z,6.04
2019-01-13T02:04:47.667Z,6.04
2019-01-13T02:05:48.020Z,6.03
2019-01-13T02:06:48.340Z,6.04
2019-01-13T02:07:48.596Z,6.04
2019-01-13T02:08:48.971Z,6.04
2019-01-13T02:09:49.942Z,6.04
2019-01-13T02:10:50.207Z,6.04
2019-01-13T02:11:50.521Z,6.05
2019-01-13T02:12:50.842Z,6.05
2019-01-13T02:13:51.128Z,6.05
2019-01-13T02:14:51.363Z,6.05
2019-01-13T02:15:51.628Z,6.05
2019-01-13T02:16:51.682Z,6.05
2019-01-13T02:17:52.104Z,6.06
2019-01-13T02:18:52.434Z,6.06
2019-01-13T02:19:52.772Z,6.06
2019-01-13T02:20:53.090Z,6.06
2019-01-13T02:21:53.516Z,6.07
2019-01-13T02:22:53.825Z,6.07
2019-01-13T02:23:54.121Z,6.08
2019-01-13T02:24:54.403Z,6.08
2019-01-13T02:25:54.647Z,6.09
2019-01-13T02:26:54.888Z,6.09
2019-01-13T02:27:55.247Z,6.10
2019-01-13T02:28:55.807Z,6.10
2019-01-13T02:29:56.025Z,6.11
2019-01-13T02:30:56.353Z,6.11
2019-01-13T02:31:57.262Z,6.12
2019-01-13T02:32:57.690Z,6.12
2019-01-13T02:33:05.980Z,6.17
2019-01-13T02:34:07.305Z,6.17
2019-01-13T02:35:07.596Z,6.17
2019-01-13T02:36:08.021Z,6.16
2019-01-13T02:37:08.315Z,6.16
2019-01-13T02:38:09.076Z,6.16
2019-01-13T02:39:09.698Z,6.16
2019-01-13T02:40:10.002Z,6.16
2019-01-13T02:41:10.282Z,6.16
2019-01-13T02:42:10.551Z,6.17
2019-01-13T02:43:11.144Z,6.17
2019-01-13T02:44:11.657Z,6.17
2019-01-13T02:45:12.216Z,6.17
2019-01-13T02:46:12.883Z,6.17
2019-01-13T02:47:13.245Z,6.16
2019-01-13T02:48:13.534Z,6.16
2019-01-13T02:49:13.786Z,6.16
2019-01-13T02:50:14.039Z,6.16
2019-01-13T02:51:14.475Z,6.16
2019-01-13T02:52:14.943Z,6.16
2019-01-13T02:53:15.329Z,6.17
2019-01-13T02:54:15.817Z,6.17
2019-01-13T02:55:16.416Z,6.17
2019-01-13T02:56:16.693Z,6.17
2019-01-13T02:57:17.005Z,6.17
2019-01-13T02:58:17.441Z,6.17
2019-01-13T02:59:17.741Z,6.17
2019-01-13T03:00:18.099Z,6.17
2019-01-13T03:01:18.847Z,6.17
2019-01-13T03:02:18.390Z,6.18
2019-01-13T03:03:19.811Z,6.18
2019-01-13T03:04:20.342Z,6.18
2019-01-13T03:05:20.833Z,6.18
2019-01-13T03:06:21.268Z,6.17
2019-01-13T03:07:21.752Z,6.17
2019-01-13T03:08:21.840Z,6.17
2019-01-13T03:09:22.575Z,6.16
2019-01-13T03:10:23.183Z,6.16
2019-01-13T03:11:23.757Z,6.15
2019-01-13T03:12:24.224Z,6.15
2019-01-13T03:13:24.736Z,6.14
2019-01-13T03:14:25.161Z,6.13
2019-01-13T03:15:25.818Z,6.12
2019-01-13T03:15:34.242Z,6.07
2019-01-13T03:16:35.687Z,6.07
2019-01-13T03:17:36.117Z,6.07
2019-01-13T03:18:36.571Z,6.07
2019-01-13T03:19:37.029Z,6.07
2019-01-13T03:20:37.550Z,6.07
2019-01-13T03:21:38.113Z,6.08
2019-01-13T03:22:38.707Z,6.08
2019-01-13T03:23:39.254Z,6.08
2019-01-13T03:24:39.671Z,6.08
2019-01-13T03:25:40.104Z,6.09
2019-01-13T03:26:40.596Z,6.09
2019-01-13T03:27:41.134Z,6.10
2019-01-13T03:28:41.596Z,6.10
2019-01-13T03:29:41.998Z,6.11
2019-01-13T03:30:42.433Z,6.11
2019-01-13T03:31:42.928Z,6.11
2019-01-13T03:32:42.391Z,6.11
2019-01-13T03:33:45.137Z,6.11
2019-01-13T03:34:44.778Z,6.11
2019-01-13T03:35:45.128Z,6.11
2019-01-13T03:36:45.591Z,6.11
2019-01-13T03:37:46.187Z,6.10
2019-01-13T03:38:46.533Z,6.10
2019-01-13T03:39:45.945Z,6.10
2019-01-13T03:40:47.379Z,6.10
2019-01-13T03:41:47.746Z,6.10
2019-01-13T03:42:48.347Z,6.10
2019-01-13T03:43:49.319Z,6.10
2019-01-13T03:44:48.461Z,6.11
2019-01-13T03:45:49.563Z,6.11
2019-01-13T03:46:49.984Z,6.11
2019-01-13T03:47:50.751Z,6.11
2019-01-13T03:48:51.477Z,6.12
2019-01-13T03:49:51.863Z,6.12
2019-01-13T03:50:52.247Z,6.12
2019-01-13T03:51:52.350Z,6.13
2019-01-13T03:52:53.764Z,6.13
2019-01-13T03:53:54.478Z,6.14
2019-01-13T03:54:55.107Z,6.14
2019-01-13T03:55:55.783Z,6.15
2019-01-13T03:56:56.223Z,6.16
2019-01-13T03:57:56.566Z,6.17
2019-01-13T03:58:57.254Z,6.18
2019-01-13T03:59:58.182Z,6.18
2019-01-13T04:00:58.684Z,6.19
2019-01-13T04:01:59.222Z,6.19
2019-01-13T04:02:59.810Z,6.20
2019-01-13T04:03:59.047Z,6.20
2019-01-13T04:05:00.186Z,6.21
2019-01-13T04:05:59.650Z,6.21
2019-01-13T04:07:00.605Z,6.22
2019-01-13T04:08:01.165Z,6.22
2019-01-13T04:09:01.112Z,6.22
2019-01-13T04:09:10.659Z,6.31
2019-01-13T04:10:09.967Z,6.30
2019-01-13T04:11:11.414Z,6.30
2019-01-13T04:12:11.884Z,6.31
2019-01-13T04:13:12.152Z,6.31
2019-01-13T04:14:12.655Z,6.31
2019-01-13T04:15:13.412Z,6.31
2019-01-13T04:16:12.579Z,6.31
2019-01-13T04:17:13.032Z,6.31
2019-01-13T04:18:14.168Z,6.31
2019-01-13T04:19:13.719Z,6.31
2019-01-13T04:20:14.172Z,6.31
2019-01-13T04:21:14.161Z,6.31
2019-01-13T04:22:14.536Z,6.31
2019-01-13T04:23:14.637Z,6.32
2019-01-13T04:24:16.753Z,6.32
2019-01-13T04:25:16.282Z,6.33
2019-01-13T04:26:16.625Z,6.33
2019-01-13T04:27:18.442Z,6.34
2019-01-13T04:28:18.032Z,6.34
2019-01-13T04:29:18.422Z,6.35
2019-01-13T04:30:18.506Z,6.36
2019-01-13T04:31:26.589Z,6.36
2019-01-13T04:32:19.282Z,6.37
2019-01-13T04:33:20.886Z,6.37
2019-01-13T04:34:21.357Z,6.37
2019-01-13T04:35:21.785Z,6.37
2019-01-13T04:36:22.259Z,6.37
2019-01-13T04:37:22.679Z,6.38
2019-01-13T04:38:23.067Z,6.38
2019-01-13T04:39:23.515Z,6.39
2019-01-13T04:40:23.929Z,6.39
2019-01-13T04:41:24.355Z,6.40
2019-01-13T04:42:24.976Z,6.40
2019-01-13T04:43:25.578Z,6.40
2019-01-13T04:44:25.988Z,6.41
2019-01-13T04:45:26.575Z,6.42
2019-01-13T04:46:27.139Z,6.42
2019-01-13T04:47:27.608Z,6.43
2019-01-13T04:48:28.342Z,6.44
2019-01-13T04:49:29.106Z,6.45
2019-01-13T04:50:30.323Z,6.46
2019-01-13T04:51:29.835Z,6.46
2019-01-13T04:52:30.231Z,6.47
2019-01-13T04:53:30.632Z,6.48
2019-01-13T04:54:31.197Z,6.48
2019-01-13T04:55:31.661Z,6.49
2019-01-13T04:56:32.559Z,6.49
2019-01-13T04:57:32.995Z,6.49
2019-01-13T04:58:33.522Z,6.50
2019-01-13T04:59:33.956Z,6.51
2019-01-13T05:00:34.305Z,6.51
2019-01-13T05:01:36.897Z,6.52
2019-01-13T05:02:34.322Z,6.52
2019-01-13T05:02:42.706Z,6.57
2019-01-13T05:03:44.078Z,6.56
2019-01-13T05:04:44.495Z,6.56
2019-01-13T05:05:44.828Z,6.57
2019-01-13T05:06:44.232Z,6.57
2019-01-13T05:07:45.946Z,6.57
2019-01-13T05:08:46.438Z,6.57
2019-01-13T05:09:46.859Z,6.58
2019-01-13T05:10:47.253Z,6.58
2019-01-13T05:11:47.630Z,6.58
2019-01-13T05:12:48.119Z,6.58
2019-01-13T05:13:47.541Z,6.58
2019-01-13T05:14:48.995Z,6.58
2019-01-13T05:15:49.548Z,6.58
2019-01-13T05:16:50.152Z,6.58
2019-01-13T05:17:50.546Z,6.59
2019-01-13T05:18:51.086Z,6.59
2019-01-13T05:19:51.667Z,6.59
2019-01-13T05:20:52.098Z,6.59
2019-01-13T05:21:52.587Z,6.59
2019-01-13T05:22:53.096Z,6.59
2019-01-13T05:23:53.670Z,6.59
2019-01-13T05:24:54.148Z,6.59
2019-01-13T05:25:54.600Z,6.59
2019-01-13T05:26:55.134Z,6.59
2019-01-13T05:27:55.673Z,6.59
2019-01-13T05:28:56.282Z,6.59
2019-01-13T05:29:56.770Z,6.59
2019-01-13T05:30:57.255Z,6.59
2019-01-13T05:31:57.794Z,6.59
2019-01-13T05:32:58.325Z,6.59
2019-01-13T05:33:59.034Z,6.59
2019-01-13T05:34:59.482Z,6.59
2019-01-13T05:35:59.900Z,6.60
2019-01-13T05:37:00.855Z,6.60
2019-01-13T05:38:01.358Z,6.61
2019-01-13T05:39:01.831Z,6.61
2019-01-13T05:40:01.304Z,6.62
2019-01-13T05:41:03.238Z,6.63
2019-01-13T05:42:03.894Z,6.63
2019-01-13T05:43:04.353Z,6.64
2019-01-13T05:44:04.759Z,6.64
2019-01-13T05:45:05.235Z,6.64
2019-01-13T05:46:05.757Z,6.65
2019-01-13T05:47:06.235Z,6.65
2019-01-13T05:47:15.576Z,6.71
2019-01-13T05:48:15.946Z,6.71
2019-01-13T05:49:16.383Z,6.71
2019-01-13T05:50:16.911Z,6.71
2019-01-13T05:51:17.669Z,6.71
2019-01-13T05:52:18.360Z,6.71
2019-01-13T05:53:18.783Z,6.71
2019-01-13T05:54:19.188Z,6.71
2019-01-13T05:55:19.671Z,6.71
2019-01-13T05:56:20.169Z,6.71
2019-01-13T05:57:20.742Z,6.71
2019-01-13T05:58:21.194Z,6.71
2019-01-13T05:59:21.623Z,6.71
2019-01-13T06:00:22.276Z,6.72
2019-01-13T06:01:22.793Z,6.72
2019-01-13T06:02:23.237Z,6.73
2019-01-13T06:03:23.701Z,6.74
2019-01-13T06:04:24.136Z,6.75
2019-01-13T06:05:24.626Z,6.76
2019-01-13T06:06:26.362Z,6.76
2019-01-13T06:07:25.730Z,6.77
2019-01-13T06:08:26.150Z,6.78
2019-01-13T06:09:26.661Z,6.78
2019-01-13T06:10:27.249Z,6.79
2019-01-13T06:11:27.740Z,6.79
2019-01-13T06:12:28.458Z,6.80
2019-01-13T06:13:29.010Z,6.81
2019-01-13T06:14:29.509Z,6.81
2019-01-13T06:15:30.000Z,6.82
2019-01-13T06:16:30.516Z,6.82
2019-01-13T06:17:31.007Z,6.83
2019-01-13T06:18:31.581Z,6.83
2019-01-13T06:19:31.969Z,6.84
2019-01-13T06:20:32.423Z,6.84
2019-01-13T06:21:32.958Z,6.85
2019-01-13T06:22:33.428Z,6.86
2019-01-13T06:23:33.948Z,6.87
2019-01-13T06:24:34.494Z,6.88
2019-01-13T06:25:34.921Z,6.89
2019-01-13T06:26:35.469Z,6.89
2019-01-13T06:27:36.106Z,6.90
2019-01-13T06:28:36.595Z,6.91
2019-01-13T06:29:37.100Z,6.92
2019-01-13T06:30:37.700Z,6.93
2019-01-13T06:31:38.184Z,6.94
2019-01-13T06:31:46.232Z,7.07
2019-01-13T06:32:47.371Z,7.07
2019-01-13T06:33:47.882Z,7.07
2019-01-13T06:34:47.376Z,7.07
2019-01-13T06:35:47.823Z,7.07
2019-01-13T06:36:49.374Z,7.07
2019-01-13T06:37:50.146Z,7.08
2019-01-13T06:38:50.569Z,7.08
2019-01-13T06:39:51.006Z,7.08
2019-01-13T06:40:51.367Z,7.08
2019-01-13T06:41:51.811Z,7.09
2019-01-13T06:42:52.250Z,7.10
2019-01-13T06:43:52.701Z,7.10
2019-01-13T06:44:53.514Z,7.10
2019-01-13T06:45:53.852Z,7.11
2019-01-13T06:46:54.358Z,7.11
2019-01-13T06:47:54.767Z,7.12
2019-01-13T06:48:55.153Z,7.12
2019-01-13T06:49:55.553Z,7.12
2019-01-13T06:50:55.979Z,7.13
2019-01-13T06:51:56.402Z,7.13
2019-01-13T06:52:57.289Z,7.13
2019-01-13T06:53:57.291Z,7.13
2019-01-13T06:54:57.764Z,7.13
2019-01-13T06:55:58.247Z,7.13
2019-01-13T06:56:58.637Z,7.12
2019-01-13T06:57:59.353Z,7.12
2019-01-13T06:58:59.383Z,7.12
2019-01-13T06:59:59.765Z,7.11
2019-01-13T07:01:00.212Z,7.11
2019-01-13T07:02:03.521Z,7.11
2019-01-13T07:03:00.205Z,7.11
2019-01-13T07:04:01.758Z,7.11
2019-01-13T07:05:02.240Z,7.10
2019-01-13T07:06:02.903Z,7.10
2019-01-13T07:07:03.346Z,7.09
2019-01-13T07:08:03.788Z,7.08
2019-01-13T07:09:04.432Z,7.07
2019-01-13T07:10:04.926Z,7.06
2019-01-13T07:11:05.363Z,7.05
2019-01-13T07:12:05.820Z,7.04
2019-01-13T07:13:06.348Z,7.03
2019-01-13T07:14:06.857Z,7.03
2019-01-13T07:15:07.209Z,7.03
2019-01-13T07:16:07.741Z,7.02
2019-01-13T07:17:08.114Z,7.01
2019-01-13T07:18:08.531Z,7.01
2019-01-13T07:18:22.580Z,6.93
2019-01-13T07:19:23.996Z,6.93
2019-01-13T07:20:24.755Z,6.92
2019-01-13T07:21:25.402Z,6.92
2019-01-13T07:22:25.801Z,6.92
2019-01-13T07:23:26.729Z,6.92
2019-01-13T07:24:27.260Z,6.91
2019-01-13T07:25:27.717Z,6.91
2019-01-13T07:26:28.217Z,6.91
2019-01-13T07:27:27.931Z,6.91
2019-01-13T07:28:29.450Z,6.90
2019-01-13T07:29:30.085Z,6.90
2019-01-13T07:30:30.635Z,6.90
2019-01-13T07:31:30.054Z,6.89
2019-01-13T07:32:31.564Z,6.89
2019-01-13T07:33:32.021Z,6.89
2019-01-13T07:34:32.473Z,6.89
2019-01-13T07:35:32.959Z,6.88
2019-01-13T07:36:33.529Z,6.88
2019-01-13T07:37:34.019Z,6.88
2019-01-13T07:38:34.457Z,6.87
2019-01-13T07:39:34.876Z,6.87
2019-01-13T07:40:35.341Z,6.87
2019-01-13T07:41:35.942Z,6.86
2019-01-13T07:42:36.391Z,6.86
2019-01-13T07:43:37.003Z,6.86
2019-01-13T07:44:37.575Z,6.85
2019-01-13T07:45:38.091Z,6.85
2019-01-13T07:46:38.500Z,6.84
2019-01-13T07:47:38.878Z,6.84
2019-01-13T07:48:39.016Z,6.84
2019-01-13T07:49:39.517Z,6.83
2019-01-13T07:50:40.038Z,6.83
2019-01-13T07:51:40.467Z,6.83
2019-01-13T07:52:40.884Z,6.83
2019-01-13T07:53:41.449Z,6.83
2019-01-13T07:54:41.868Z,6.83
2019-01-13T07:55:42.285Z,6.83
2019-01-13T07:56:42.852Z,6.82
2019-01-13T07:57:43.481Z,6.83
2019-01-13T07:58:43.965Z,6.83
2019-01-13T07:59:44.625Z,6.83
2019-01-13T08:00:45.028Z,6.82
2019-01-13T08:01:45.507Z,6.83
2019-01-13T08:01:53.829Z,6.83
2019-01-13T08:02:55.247Z,6.83
2019-01-13T08:03:55.675Z,6.83
2019-01-13T08:04:56.244Z,6.83
2019-01-13T08:05:56.634Z,6.83
2019-01-13T08:06:57.138Z,6.84
2019-01-13T08:07:57.609Z,6.83
2019-01-13T08:08:58.047Z,6.84
2019-01-13T08:09:58.464Z,6.84
2019-01-13T08:10:59.051Z,6.84
2019-01-13T08:11:59.459Z,6.85
2019-01-13T08:12:59.909Z,6.85
2019-01-13T08:14:00.373Z,6.86
2019-01-13T08:15:00.426Z,6.86
2019-01-13T08:16:00.845Z,6.86
2019-01-13T08:17:01.322Z,6.85
2019-01-13T08:18:01.932Z,6.85
2019-01-13T08:19:02.457Z,6.86
2019-01-13T08:20:02.977Z,6.86
2019-01-13T08:21:03.423Z,6.87
2019-01-13T08:22:03.984Z,6.88
2019-01-13T08:23:04.345Z,6.88
2019-01-13T08:24:04.904Z,6.89
2019-01-13T08:25:05.318Z,6.89
2019-01-13T08:26:05.669Z,6.90
2019-01-13T08:27:06.496Z,6.90
2019-01-13T08:28:06.991Z,6.91
2019-01-13T08:29:07.486Z,6.91
2019-01-13T08:30:07.896Z,6.92
2019-01-13T08:31:08.467Z,6.92
2019-01-13T08:32:08.955Z,6.93
2019-01-13T08:33:09.406Z,6.93
2019-01-13T08:34:09.768Z,6.94
2019-01-13T08:35:10.236Z,6.95
2019-01-13T08:36:10.643Z,6.96
2019-01-13T08:37:11.144Z,6.97
2019-01-13T08:38:11.742Z,6.98
2019-01-13T08:39:12.167Z,6.99
2019-01-13T08:40:12.783Z,6.99
2019-01-13T08:41:13.193Z,7.00
2019-01-13T08:42:13.706Z,7.01
2019-01-13T08:43:14.084Z,7.01
2019-01-13T08:44:14.833Z,7.02
2019-01-13T08:45:15.266Z,7.02
2019-01-13T08:45:23.656Z,7.04
2019-01-13T08:46:25.272Z,7.03
2019-01-13T08:47:25.743Z,7.04
2019-01-13T08:48:26.594Z,7.04
2019-01-13T08:49:26.994Z,7.04
2019-01-13T08:50:27.663Z,7.04
2019-01-13T08:51:28.116Z,7.04
2019-01-13T08:52:28.894Z,7.04
2019-01-13T08:53:29.450Z,7.04
2019-01-13T08:54:30.402Z,7.04
2019-01-13T08:55:30.819Z,7.04
2019-01-13T08:56:31.321Z,7.04
2019-01-13T08:57:31.783Z,7.04
2019-01-13T08:58:32.261Z,7.05
2019-01-13T08:59:32.864Z,7.05
2019-01-13T09:00:33.340Z,7.06
2019-01-13T09:01:33.774Z,7.07
2019-01-13T09:02:34.315Z,7.08
2019-01-13T09:03:34.797Z,7.09
2019-01-13T09:04:35.222Z,7.09
2019-01-13T09:05:35.345Z,7.10
2019-01-13T09:06:36.129Z,7.10
2019-01-13T09:07:36.755Z,7.11
2019-01-13T09:08:37.309Z,7.12
2019-01-13T09:09:37.795Z,7.13
2019-01-13T09:10:38.325Z,7.13
2019-01-13T09:11:38.786Z,7.14
2019-01-13T09:12:39.384Z,7.14
2019-01-13T09:13:39.990Z,7.15
2019-01-13T09:14:40.481Z,7.16
2019-01-13T09:15:40.923Z,7.16
2019-01-13T09:16:41.471Z,7.17
2019-01-13T09:17:42.041Z,7.18
2019-01-13T09:18:42.474Z,7.19
2019-01-13T09:19:43.080Z,7.19
2019-01-13T09:20:43.621Z,7.19
2019-01-13T09:21:44.810Z,7.19
2019-01-13T09:22:44.253Z,7.20
2019-01-13T09:23:44.877Z,7.20
2019-01-13T09:24:45.706Z,7.20
2019-01-13T09:25:46.285Z,7.21
2019-01-13T09:26:50.906Z,7.21
2019-01-13T09:27:46.496Z,7.22
2019-01-13T09:28:48.016Z,7.23
2019-01-13T09:29:47.594Z,7.23
2019-01-13T09:30:48.071Z,7.24
2019-01-13T09:30:56.428Z,7.32
2019-01-13T09:31:57.440Z,7.32
2019-01-13T09:32:57.950Z,7.32
2019-01-13T09:33:58.560Z,7.32
2019-01-13T09:34:58.945Z,7.32
2019-01-13T09:35:59.523Z,7.32
2019-01-13T09:36:59.977Z,7.32
2019-01-13T09:38:00.400Z,7.32
2019-01-13T09:39:00.949Z,7.33
2019-01-13T09:40:00.298Z,7.33
2019-01-13T09:41:02.094Z,7.34
2019-01-13T09:42:02.546Z,7.34
2019-01-13T09:43:02.981Z,7.35
2019-01-13T09:44:03.448Z,7.36
2019-01-13T09:45:03.887Z,7.37
2019-01-13T09:46:04.505Z,7.37
2019-01-13T09:47:05.147Z,7.38
2019-01-13T09:48:05.683Z,7.38
2019-01-13T09:49:06.187Z,7.39
2019-01-13T09:50:06.705Z,7.40
2019-01-13T09:51:07.204Z,7.41
2019-01-13T09:52:07.706Z,7.42
2019-01-13T09:53:08.239Z,7.43
2019-01-13T09:54:08.659Z,7.44
2019-01-13T09:55:09.068Z,7.45
2019-01-13T09:56:09.572Z,7.46
2019-01-13T09:57:10.575Z,7.47
2019-01-13T09:58:11.119Z,7.48
2019-01-13T09:59:11.532Z,7.49
2019-01-13T10:00:12.086Z,7.51
2019-01-13T10:01:12.613Z,7.52
2019-01-13T10:02:13.123Z,7.53
2019-01-13T10:03:13.576Z,7.53
2019-01-13T10:04:14.057Z,7.54
2019-01-13T10:05:14.719Z,7.54
2019-01-13T10:06:17.020Z,7.55
2019-01-13T10:07:14.747Z,7.56
2019-01-13T10:08:16.309Z,7.56
2019-01-13T10:09:16.771Z,7.57
2019-01-13T10:10:17.284Z,7.57
2019-01-13T10:11:17.721Z,7.58
2019-01-13T10:12:18.169Z,7.58
2019-01-13T10:13:18.572Z,7.59
2019-01-13T10:14:19.207Z,7.59
2019-01-13T10:15:19.743Z,7.60
2019-01-13T10:15:27.823Z,7.67
2019-01-13T10:16:29.268Z,7.67
2019-01-13T10:17:29.641Z,7.67
2019-01-13T10:18:30.416Z,7.67
2019-01-13T10:19:31.274Z,7.68
2019-01-13T10:20:31.776Z,7.69
2019-01-13T10:21:32.239Z,7.69
2019-01-13T10:22:32.735Z,7.70
2019-01-13T10:23:33.190Z,7.70
2019-01-13T10:24:33.935Z,7.71
2019-01-13T10:25:34.428Z,7.72
2019-01-13T10:26:34.801Z,7.72
2019-01-13T10:27:35.280Z,7.73
2019-01-13T10:28:35.778Z,7.73
2019-01-13T10:29:36.557Z,7.74
2019-01-13T10:30:37.033Z,7.74
2019-01-13T10:31:37.504Z,7.75
2019-01-13T10:32:38.066Z,7.75
2019-01-13T10:33:38.699Z,7.76
2019-01-13T10:34:39.248Z,7.76
2019-01-13T10:35:39.671Z,7.77
2019-01-13T10:36:40.257Z,7.78
2019-01-13T10:37:40.825Z,7.79
2019-01-13T10:38:41.464Z,7.79
2019-01-13T10:39:42.047Z,7.80
2019-01-13T10:40:42.454Z,7.81
2019-01-13T10:41:42.926Z,7.82
2019-01-13T10:42:43.365Z,7.83
2019-01-13T10:43:43.772Z,7.84
2019-01-13T10:44:44.425Z,7.84
2019-01-13T10:45:45.036Z,7.85
2019-01-13T10:46:45.708Z,7.85
2019-01-13T10:47:45.710Z,7.86
2019-01-13T10:48:46.301Z,7.87
2019-01-13T10:49:46.805Z,7.87
2019-01-13T10:50:47.293Z,7.87
2019-01-13T10:51:47.841Z,7.88
2019-01-13T10:52:48.379Z,7.88
2019-01-13T10:53:48.841Z,7.89
2019-01-13T10:54:49.327Z,7.89
2019-01-13T10:55:49.945Z,7.89
2019-01-13T10:56:50.422Z,7.90
2019-01-13T10:57:51.064Z,7.90
2019-01-13T10:58:51.470Z,7.90
2019-01-13T10:59:07.114Z,8.02
2019-01-13T11:00:08.579Z,8.02
2019-01-13T11:01:09.113Z,8.02
2019-01-13T11:02:09.679Z,8.02
2019-01-13T11:03:10.221Z,8.02
2019-01-13T11:04:10.421Z,8.02
2019-01-13T11:05:10.912Z,8.02
2019-01-13T11:06:11.372Z,8.02
2019-01-13T11:07:11.791Z,8.02
2019-01-13T11:08:12.172Z,8.02
2019-01-13T11:09:12.754Z,8.03
2019-01-13T11:10:13.320Z,8.03
2019-01-13T11:11:13.991Z,8.03
2019-01-13T11:12:14.543Z,8.04
2019-01-13T11:13:14.954Z,8.04
2019-01-13T11:14:15.429Z,8.05
2019-01-13T11:15:21.595Z,8.05
2019-01-13T11:16:15.421Z,8.06
2019-01-13T11:17:16.966Z,8.07
2019-01-13T11:18:16.991Z,8.08
2019-01-13T11:19:17.620Z,8.09
2019-01-13T11:20:18.226Z,8.09
2019-01-13T11:21:18.707Z,8.11
2019-01-13T11:22:19.412Z,8.12
2019-01-13T11:23:18.930Z,8.13
2019-01-13T11:24:20.440Z,8.14
2019-01-13T11:25:20.976Z,8.15
2019-01-13T11:26:21.674Z,8.16
2019-01-13T11:27:22.229Z,8.17
2019-01-13T11:28:22.892Z,8.18
2019-01-13T11:29:22.354Z,8.19
2019-01-13T11:30:23.952Z,8.21
2019-01-13T11:31:23.459Z,8.22
2019-01-13T11:32:24.981Z,8.24
2019-01-13T11:33:25.118Z,8.25
2019-01-13T11:34:25.598Z,8.27
2019-01-13T11:35:26.088Z,8.29
2019-01-13T11:36:26.540Z,8.31
2019-01-13T11:37:26.969Z,8.32
2019-01-13T11:38:27.830Z,8.33
2019-01-13T11:39:28.384Z,8.35
2019-01-13T11:40:28.987Z,8.36
2019-01-13T11:41:29.406Z,8.37
2019-01-13T11:42:30.016Z,8.38
2019-01-13T11:43:30.479Z,8.39
2019-01-13T11:44:32.470Z,8.41
2019-01-13T11:45:31.999Z,8.42
2019-01-13T11:45:44.007Z,8.67
2019-01-13T11:46:46.532Z,8.67
2019-01-13T11:47:46.462Z,8.67
2019-01-13T11:48:47.027Z,8.67
2019-01-13T11:49:47.626Z,8.67
2019-01-13T11:50:48.481Z,8.68
2019-01-13T11:51:49.378Z,8.68
2019-01-13T11:52:49.955Z,8.68
2019-01-13T11:53:50.452Z,8.68
2019-01-13T11:54:50.826Z,8.68
2019-01-13T11:55:51.343Z,8.68
2019-01-13T11:56:51.874Z,8.69
2019-01-13T11:57:52.340Z,8.69
2019-01-13T11:58:52.904Z,8.69
2019-01-13T11:59:53.528Z,8.69
2019-01-13T12:00:53.992Z,8.70
2019-01-13T12:01:54.519Z,8.70
2019-01-13T12:02:55.119Z,8.71
2019-01-13T12:03:55.664Z,8.71
2019-01-13T12:04:56.122Z,8.72
2019-01-13T12:05:56.745Z,8.73
2019-01-13T12:06:57.319Z,8.73
2019-01-13T12:07:57.819Z,8.73
2019-01-13T12:08:58.468Z,8.73
2019-01-13T12:09:58.965Z,8.74
2019-01-13T12:10:59.678Z,8.74
2019-01-13T12:12:00.327Z,8.74
2019-01-13T12:13:00.931Z,8.74
2019-01-13T12:14:01.528Z,8.73
2019-01-13T12:15:02.501Z,8.73
2019-01-13T12:16:03.176Z,8.72
2019-01-13T12:17:03.889Z,8.71
2019-01-13T12:18:04.386Z,8.71
2019-01-13T12:19:04.961Z,8.70
2019-01-13T12:20:05.536Z,8.70
2019-01-13T12:21:06.205Z,8.70
2019-01-13T12:22:06.897Z,8.69
2019-01-13T12:23:07.389Z,8.69
2019-01-13T12:24:07.839Z,8.68
2019-01-13T12:25:08.275Z,8.68
2019-01-13T12:26:08.851Z,8.67
2019-01-13T12:27:10.614Z,8.66
2019-01-13T12:27:24.630Z,8.54
2019-01-13T12:28:25.458Z,8.54
2019-01-13T12:29:26.039Z,8.54
2019-01-13T12:30:26.597Z,8.53
2019-01-13T12:31:27.133Z,8.53
2019-01-13T12:32:27.711Z,8.53
2019-01-13T12:33:28.235Z,8.52
2019-01-13T12:34:28.671Z,8.51
2019-01-13T12:35:29.175Z,8.51
2019-01-13T12:36:30.043Z,8.50
2019-01-13T12:37:30.631Z,8.50
2019-01-13T12:38:31.475Z,8.50
2019-01-13T12:39:32.255Z,8.50
2019-01-13T12:40:32.845Z,8.49
2019-01-13T12:41:33.471Z,8.49
2019-01-13T12:42:33.879Z,8.49
2019-01-13T12:43:34.384Z,8.49
2019-01-13T12:44:34.934Z,8.49
2019-01-13T12:45:35.356Z,8.49
2019-01-13T12:46:35.964Z,8.49
2019-01-13T12:47:36.464Z,8.49
2019-01-13T12:48:37.097Z,8.49
2019-01-13T12:49:37.487Z,8.50
2019-01-13T12:50:38.151Z,8.50
2019-01-13T12:51:38.589Z,8.49
2019-01-13T12:52:39.336Z,8.50
2019-01-13T12:53:39.921Z,8.50
2019-01-13T12:54:39.400Z,8.49
2019-01-13T12:55:40.894Z,8.49
2019-01-13T12:56:41.443Z,8.49
2019-01-13T12:57:42.276Z,8.50
2019-01-13T12:58:42.813Z,8.50
2019-01-13T12:59:43.432Z,8.50
2019-01-13T13:00:43.951Z,8.50
2019-01-13T13:01:44.478Z,8.51
2019-01-13T13:02:45.136Z,8.51
2019-01-13T13:03:45.968Z,8.51
2019-01-13T13:04:46.588Z,8.51
2019-01-13T13:05:47.135Z,8.50
2019-01-13T13:06:47.841Z,8.50
2019-01-13T13:07:48.403Z,8.50
2019-01-13T13:08:49.108Z,8.50
2019-01-13T13:09:49.517Z,8.50
2019-01-13T13:10:49.512Z,8.50
2019-01-13T13:11:51.293Z,8.50